createdAt,value
2018-04-26T00:00:12.698Z,3.40
2018-04-26T00:03:15.243Z,3.13
2018-04-26T00:06:17.743Z,3.17
2018-04-26T00:09:20.266Z,2.67
2018-04-26T00:12:22.811Z,3.50
2018-04-26T00:15:25.343Z,3.60
2018-04-26T00:18:27.873Z,3.30
2018-04-26T00:21:30.402Z,3.20
2018-04-26T00:24:32.947Z,3.33
2018-04-26T00:27:35.478Z,3.27
2018-04-26T00:30:38.059Z,3.70
2018-04-26T00:33:40.582Z,3.40
2018-04-26T00:36:43.101Z,3.33
2018-04-26T00:39:45.625Z,4.00
2018-04-26T00:42:48.159Z,3.43
2018-04-26T00:45:52.766Z,3.83
2018-04-26T00:48:55.336Z,3.40
2018-04-26T00:52:01.872Z,3.43
2018-04-26T00:55:04.432Z,3.40
2018-04-26T00:58:07.042Z,3.90
2018-04-26T01:01:09.651Z,3.63
2018-04-26T01:04:12.251Z,4.27
2018-04-26T01:07:14.832Z,3.50
2018-04-26T01:10:17.401Z,3.47
2018-04-26T01:13:20.872Z,3.77
2018-04-26T01:16:23.383Z,4.03
2018-04-26T01:19:25.915Z,3.27
2018-04-26T01:22:28.498Z,3.57
2018-04-26T01:25:31.073Z,3.87
2018-04-26T01:28:33.640Z,4.17
2018-04-26T01:31:36.221Z,4.07
2018-04-26T01:34:38.895Z,3.63
2018-04-26T01:37:48.095Z,4.17
2018-04-26T01:40:50.689Z,3.60
2018-04-26T01:43:53.296Z,4.37
2018-04-26T01:46:55.850Z,3.90
2018-04-26T01:49:58.572Z,4.50
2018-04-26T01:53:01.179Z,4.63
2018-04-26T01:56:03.698Z,4.80
2018-04-26T01:59:06.265Z,7.87
2018-04-26T02:02:08.841Z,8.50
2018-04-26T02:05:11.440Z,4.70
2018-04-26T02:08:14.007Z,4.50
2018-04-26T02:11:16.542Z,5.17
2018-04-26T02:14:19.131Z,4.80
2018-04-26T02:17:21.714Z,4.87
2018-04-26T02:20:24.705Z,5.50
2018-04-26T02:23:27.375Z,7.17
2018-04-26T02:26:29.968Z,5.50
2018-04-26T02:29:36.196Z,5.60
2018-04-26T02:32:38.754Z,5.30
2018-04-26T02:35:41.335Z,5.60
2018-04-26T02:38:43.933Z,5.07
2018-04-26T02:41:46.476Z,5.43
2018-04-26T02:44:49.090Z,5.93
2018-04-26T02:47:51.599Z,5.73
2018-04-26T02:50:54.129Z,5.87
2018-04-26T02:53:56.662Z,5.93
2018-04-26T02:56:59.204Z,6.17
2018-04-26T03:00:01.823Z,6.47
2018-04-26T03:03:04.427Z,5.80
2018-04-26T03:06:08.079Z,6.40
2018-04-26T03:09:10.656Z,5.83
2018-04-26T03:12:13.297Z,6.37
2018-04-26T03:15:15.929Z,6.30
2018-04-26T03:18:19.577Z,6.80
2018-04-26T03:21:22.169Z,6.87
2018-04-26T03:24:24.813Z,6.90
2018-04-26T03:27:27.433Z,6.90
2018-04-26T03:30:30.041Z,7.23
2018-04-26T03:33:32.649Z,7.27
2018-04-26T03:36:35.295Z,6.77
2018-04-26T03:39:37.913Z,6.83
2018-04-26T03:42:40.558Z,6.60
2018-04-26T03:45:44.449Z,7.53
2018-04-26T03:48:48.183Z,8.07
2018-04-26T03:51:50.762Z,7.93
2018-04-26T03:54:55.750Z,6.80
2018-04-26T03:57:59.477Z,6.50
2018-04-26T04:01:13.758Z,7.43
2018-04-26T04:04:29.291Z,7.77
2018-04-26T04:07:32.903Z,8.33
2018-04-26T04:10:36.118Z,9.20
2018-04-26T04:13:38.695Z,8.50
2018-04-26T04:16:42.094Z,7.80
2018-04-26T04:19:46.588Z,7.90
2018-04-26T04:22:49.197Z,7.87
2018-04-26T04:25:51.775Z,8.03
2018-04-26T04:28:54.347Z,7.43
2018-04-26T04:31:56.883Z,8.23
2018-04-26T04:34:59.383Z,7.93
2018-04-26T04:38:01.909Z,8.07
2018-04-26T04:41:04.415Z,7.50
2018-04-26T04:44:06.962Z,8.33
2018-04-26T04:47:09.465Z,7.77
2018-04-26T04:50:11.968Z,8.23
2018-04-26T04:53:14.483Z,7.93
2018-04-26T04:56:16.980Z,7.70
2018-04-26T04:59:19.522Z,8.20
2018-04-26T05:02:22.016Z,8.50
2018-04-26T05:05:24.512Z,8.80
2018-04-26T05:08:27.124Z,8.37
2018-04-26T05:11:29.670Z,8.17
2018-04-26T05:14:32.226Z,8.20
2018-04-26T05:17:34.899Z,8.77
2018-04-26T05:20:37.401Z,8.60
2018-04-26T05:23:39.926Z,8.90
2018-04-26T05:26:42.474Z,8.93
2018-04-26T05:29:45.053Z,8.37
2018-04-26T05:32:47.578Z,8.50
2018-04-26T05:35:50.098Z,8.70
2018-04-26T05:38:52.651Z,8.30
2018-04-26T05:41:55.168Z,8.87
2018-04-26T05:44:57.717Z,9.30
2018-04-26T05:48:00.291Z,8.60
2018-04-26T05:51:02.810Z,9.43
2018-04-26T05:54:06.333Z,9.40
2018-04-26T05:57:08.839Z,9.60
2018-04-26T06:00:11.507Z,8.63
2018-04-26T06:03:14.021Z,10.03
2018-04-26T06:06:21.254Z,9.37
2018-04-26T06:09:23.805Z,9.37
2018-04-26T06:12:27.045Z,10.03
2018-04-26T06:15:29.550Z,9.87
2018-04-26T06:18:32.108Z,9.87
2018-04-26T06:21:34.617Z,9.97
2018-04-26T06:24:37.128Z,9.27
2018-04-26T06:27:39.666Z,13.37
2018-04-26T06:30:42.171Z,10.13
2018-04-26T06:33:44.736Z,8.53
2018-04-26T06:36:47.309Z,9.33
2018-04-26T06:39:49.750Z,10.70
2018-04-26T06:42:52.391Z,9.40
2018-04-26T06:45:55.034Z,9.80
2018-04-26T06:48:57.714Z,10.67
2018-04-26T06:52:01.155Z,12.07
2018-04-26T06:55:03.674Z,9.83
2018-04-26T06:58:06.234Z,9.50
2018-04-26T07:01:08.755Z,9.87
2018-04-26T07:04:11.315Z,10.03
2018-04-26T07:07:13.816Z,10.60
2018-04-26T07:10:16.375Z,10.50
2018-04-26T07:13:18.887Z,10.40
2018-04-26T07:16:21.538Z,10.03
2018-04-26T07:19:24.080Z,9.50
2018-04-26T07:22:27.118Z,9.87
2018-04-26T07:25:30.211Z,10.80
2018-04-26T07:53:58.854Z,10.50
2018-04-26T07:57:01.442Z,10.70
2018-04-26T08:00:03.969Z,10.60
2018-04-26T08:03:06.475Z,11.23
2018-04-26T08:06:09.027Z,10.43
2018-04-26T08:09:11.524Z,11.73
2018-04-26T08:12:14.033Z,12.60
2018-04-26T08:22:13.044Z,12.00
2018-04-26T08:25:17.513Z,12.17
2018-04-26T08:28:20.026Z,12.67
2018-04-26T08:31:22.883Z,12.90
2018-04-26T08:34:25.419Z,12.83
2018-04-26T08:37:28.613Z,17.17
2018-04-26T08:40:31.211Z,13.17
2018-04-26T08:43:33.745Z,13.10
2018-04-26T08:46:36.283Z,12.57
2018-04-26T08:49:38.807Z,13.80
2018-04-26T08:52:41.383Z,14.27
2018-04-26T08:55:43.971Z,12.23
2018-04-26T08:58:46.552Z,12.60
2018-04-26T09:01:49.146Z,11.90
2018-04-26T09:04:51.767Z,11.77
2018-04-26T09:07:54.313Z,12.30
2018-04-26T09:10:56.882Z,13.23
2018-04-26T09:13:59.566Z,7.33
2018-04-26T09:17:02.096Z,5.73
2018-04-26T09:20:04.701Z,8.53
2018-04-26T09:23:07.236Z,8.77
2018-04-26T09:26:09.766Z,10.07
2018-04-26T09:29:12.264Z,7.70
2018-04-26T09:32:14.770Z,7.73
2018-04-26T09:35:17.306Z,6.73
2018-04-26T09:38:19.818Z,6.83
2018-04-26T09:41:22.385Z,7.53
2018-04-26T09:44:24.921Z,4.87
2018-04-26T09:47:27.441Z,3.43
2018-04-26T09:50:29.974Z,4.07
2018-04-26T09:53:32.476Z,3.60
2018-04-26T09:56:34.998Z,3.50
2018-04-26T09:59:37.509Z,3.57
2018-04-26T10:02:45.933Z,2.93
2018-04-26T10:05:54.174Z,3.67
2018-04-26T10:08:56.695Z,2.80
2018-04-26T10:11:59.219Z,3.50
2018-04-26T10:15:01.821Z,2.87
2018-04-26T10:18:04.298Z,2.93
2018-04-26T10:21:06.863Z,3.20
2018-04-26T10:24:09.355Z,3.40
2018-04-26T10:27:12.047Z,6.27
2018-04-26T10:30:15.277Z,3.73
2018-04-26T10:33:17.876Z,3.53
2018-04-26T10:36:21.021Z,4.03
2018-04-26T10:39:23.647Z,4.40
2018-04-26T10:42:26.186Z,3.90
2018-04-26T10:45:28.756Z,3.57
2018-04-26T10:48:31.273Z,4.20
2018-04-26T10:51:33.836Z,3.53
2018-04-26T10:54:36.403Z,3.10
2018-04-26T10:57:38.940Z,3.10
2018-04-26T11:00:41.540Z,3.20
2018-04-26T11:03:44.080Z,3.00
2018-04-26T11:06:47.363Z,3.27
2018-04-26T11:09:50.144Z,2.70
2018-04-26T11:12:52.751Z,2.80
2018-04-26T11:15:55.374Z,3.17
2018-04-26T11:19:01.052Z,3.23
2018-04-26T11:22:03.744Z,2.10
2018-04-26T11:25:06.361Z,2.50
2018-04-26T11:28:08.972Z,2.27
2018-04-26T11:31:12.828Z,2.10
2018-04-26T11:34:16.579Z,2.37
2018-04-26T11:37:19.589Z,2.10
2018-04-26T11:40:22.210Z,1.90
2018-04-26T11:43:24.852Z,2.20
2018-04-26T11:46:27.359Z,1.70
2018-04-26T11:49:29.871Z,2.00
2018-04-26T11:52:32.470Z,1.77
2018-04-26T11:55:34.898Z,1.77
2018-04-26T11:58:37.455Z,1.83
2018-04-26T12:01:40.333Z,1.77
2018-04-26T12:04:42.958Z,1.87
2018-04-26T12:07:45.795Z,1.87
2018-04-26T12:10:48.443Z,2.00
2018-04-26T12:13:51.057Z,6.60
2018-04-26T12:16:53.662Z,2.10
2018-04-26T12:19:56.208Z,3.00
2018-04-26T12:22:58.703Z,1.70
2018-04-26T12:29:41.665Z,1.80
2018-04-26T12:32:44.275Z,2.00
2018-04-26T12:35:46.831Z,1.83
2018-04-26T12:38:49.340Z,1.90
2018-04-26T12:41:51.887Z,1.97
2018-04-26T12:44:54.932Z,2.20
2018-04-26T12:47:58.892Z,2.10
2018-04-26T12:51:02.174Z,2.37
2018-04-26T12:54:05.608Z,2.80
2018-04-26T12:57:12.979Z,2.80
2018-04-26T13:00:15.789Z,3.27
2018-04-26T13:03:18.956Z,2.70
2018-04-26T13:06:21.796Z,2.63
2018-04-26T13:09:25.253Z,2.80
2018-04-26T13:12:27.806Z,3.70
2018-04-26T13:15:31.749Z,2.77
2018-04-26T13:18:34.349Z,2.93
2018-04-26T13:21:36.917Z,2.50
2018-04-26T13:24:39.486Z,2.90
2018-04-26T13:27:42.961Z,2.40
2018-04-26T13:30:46.432Z,2.33
2018-04-26T13:33:49.535Z,1.90
2018-04-26T13:36:52.063Z,11.43
2018-04-26T13:39:54.624Z,3.60
2018-04-26T13:42:57.240Z,2.03
2018-04-26T13:45:59.878Z,2.57
2018-04-26T13:49:02.421Z,2.10
2018-04-26T13:52:05.071Z,2.40
2018-04-26T13:55:07.722Z,3.00
2018-04-26T13:58:16.260Z,2.30
2018-04-26T14:01:18.835Z,2.53
2018-04-26T14:04:21.425Z,2.60
2018-04-26T14:07:24.027Z,2.87
2018-04-26T14:10:26.590Z,2.30
2018-04-26T14:13:29.145Z,2.67
2018-04-26T14:16:31.763Z,2.60
2018-04-26T14:19:34.292Z,2.43
2018-04-26T14:22:36.844Z,2.17
2018-04-26T14:25:39.408Z,2.30
2018-04-26T14:28:41.987Z,2.40
2018-04-26T14:31:44.561Z,2.20
2018-04-26T14:34:47.149Z,2.03
2018-04-26T14:37:49.669Z,2.37
2018-04-26T14:40:52.180Z,2.40
2018-04-26T14:43:54.725Z,1.70
2018-04-26T14:46:57.291Z,1.90
2018-04-26T14:49:59.861Z,2.00
2018-04-26T14:53:02.437Z,1.77
2018-04-26T14:56:05.018Z,2.03
2018-04-26T14:59:09.200Z,2.17
2018-04-26T15:02:11.780Z,1.97
2018-04-26T15:05:14.885Z,1.77
2018-04-26T15:08:17.534Z,2.43
2018-04-26T15:11:20.527Z,1.87
2018-04-26T16:09:03.656Z,3.37
2018-04-26T16:12:26.536Z,3.23
2018-04-26T16:15:41.308Z,3.17
2018-04-26T16:18:54.857Z,3.13
2018-04-26T16:22:14.969Z,3.17
2018-04-26T16:29:17.082Z,3.57
2018-04-26T16:32:36.598Z,2.67
2018-04-26T16:35:51.061Z,2.90
2018-04-26T16:39:15.451Z,2.30
2018-04-26T16:42:17.955Z,2.40
2018-04-26T16:45:21.422Z,2.20
2018-04-26T16:48:24.004Z,2.73
2018-04-26T16:51:26.669Z,2.13
2018-04-26T16:54:29.281Z,2.33
2018-04-26T16:57:31.912Z,2.23
2018-04-26T17:00:34.843Z,6.37
2018-04-26T17:03:37.612Z,2.27
2018-04-26T17:06:40.271Z,2.10
2018-04-26T17:09:43.065Z,1.90
2018-04-26T17:12:45.646Z,2.13
2018-04-26T17:15:48.191Z,2.20
2018-04-26T17:18:50.855Z,2.60
2018-04-26T17:21:53.662Z,2.43
2018-04-26T17:24:56.366Z,3.07
2018-04-26T17:27:59.013Z,6.73
2018-04-26T17:31:01.718Z,2.37
2018-04-26T17:34:04.476Z,2.50
2018-04-26T17:37:09.074Z,2.53
2018-04-26T17:40:11.678Z,2.50
2018-04-26T17:43:20.577Z,2.87
2018-04-26T17:46:23.280Z,3.40
2018-04-26T17:49:25.971Z,2.47
2018-04-26T17:52:28.849Z,3.03
2018-04-26T17:55:31.684Z,2.60
2018-04-26T17:58:34.438Z,3.10
2018-04-26T18:01:37.335Z,2.77
2018-04-26T18:04:40.091Z,3.10
2018-04-26T18:07:42.790Z,2.97
2018-04-26T18:10:45.593Z,2.80
2018-04-26T18:13:48.303Z,2.90
2018-04-26T18:16:51.019Z,3.83
2018-04-26T18:20:01.040Z,3.13
2018-04-26T18:22:56.384Z,2.90
2018-04-26T18:25:59.155Z,3.50
2018-04-26T18:29:01.827Z,2.80
2018-04-26T18:32:04.870Z,3.00
2018-04-26T18:35:07.449Z,2.60
2018-04-26T18:38:10.439Z,3.00
2018-04-26T18:41:13.054Z,2.80
2018-04-26T18:44:15.876Z,2.80
2018-04-26T18:47:18.786Z,2.60
2018-04-26T18:50:21.559Z,3.13
2018-04-26T18:53:24.817Z,2.40
2018-04-26T18:56:27.556Z,5.57
2018-04-26T18:59:30.360Z,2.60
2018-04-26T19:02:33.229Z,2.27
2018-04-26T19:05:36.094Z,2.60
2018-04-26T19:08:39.199Z,2.20
2018-04-26T19:11:41.898Z,2.40
2018-04-26T19:14:44.521Z,2.27
2018-04-26T19:17:47.324Z,2.47
2018-04-26T19:20:50.707Z,2.90
2018-04-26T19:23:53.387Z,2.40
2018-04-26T19:26:56.018Z,2.60
2018-04-26T19:29:58.749Z,3.03
2018-04-26T19:33:01.775Z,2.40
2018-04-26T19:36:04.493Z,2.20
2018-04-26T19:39:07.233Z,2.77
2018-04-26T19:42:09.935Z,2.97
2018-04-26T19:45:12.635Z,2.80
2018-04-26T19:48:15.228Z,2.33
2018-04-26T19:51:17.817Z,2.10
2018-04-26T19:54:20.660Z,2.10
2018-04-26T19:57:23.396Z,2.37
2018-04-26T20:00:26.076Z,1.97
2018-04-26T20:03:28.778Z,2.27
2018-04-26T20:06:31.412Z,2.23
2018-04-26T20:09:34.058Z,2.27
2018-04-26T20:12:36.730Z,2.47
2018-04-26T20:15:39.352Z,2.10
2018-04-26T20:18:41.919Z,2.07
2018-04-26T20:21:44.477Z,2.00
2018-04-26T20:24:47.184Z,1.90
2018-04-26T20:27:49.836Z,2.03
2018-04-26T20:30:52.459Z,2.30
2018-04-26T20:33:55.009Z,2.20
2018-04-26T20:36:57.573Z,2.10
2018-04-26T20:40:00.250Z,2.40
2018-04-26T20:43:02.878Z,2.30
2018-04-26T20:46:05.519Z,2.20
2018-04-26T20:49:08.143Z,2.33
2018-04-26T20:52:10.703Z,1.97
2018-04-26T20:55:13.252Z,2.20
2018-04-26T20:58:15.799Z,2.63
2018-04-26T21:01:18.411Z,2.00
2018-04-26T21:04:20.917Z,2.20
2018-04-26T21:07:23.469Z,2.20
2018-04-26T21:10:26.099Z,2.07
2018-04-26T21:13:28.632Z,2.60
2018-04-26T21:16:31.199Z,2.00
2018-04-26T21:19:33.814Z,2.97
2018-04-26T21:22:36.322Z,2.57
2018-04-26T21:25:38.874Z,2.80
2018-04-26T21:28:41.488Z,7.67
2018-04-26T21:31:44.004Z,2.57
2018-04-26T21:34:46.574Z,2.47
2018-04-26T21:37:49.205Z,2.90
2018-04-26T21:40:51.710Z,2.50
2018-04-26T21:43:54.278Z,2.77
2018-04-26T21:46:56.824Z,2.83
2018-04-26T21:50:04.899Z,2.30
2018-04-26T21:53:13.010Z,2.80
2018-04-26T21:56:21.200Z,2.63
2018-04-26T21:59:29.222Z,2.70
2018-04-26T22:02:31.179Z,2.80
2018-04-26T22:05:35.100Z,2.77
2018-04-26T22:08:37.646Z,2.80
2018-04-26T22:11:40.687Z,2.30
2018-04-26T22:14:43.219Z,2.43
2018-04-26T22:17:45.708Z,2.70
2018-04-26T22:20:48.193Z,2.57
2018-04-26T22:23:50.700Z,2.97
2018-04-26T22:26:53.237Z,3.07
2018-04-26T22:29:55.827Z,2.40
2018-04-26T22:32:58.372Z,2.37
2018-04-26T22:36:00.858Z,2.50
2018-04-26T22:39:03.394Z,2.50
2018-04-26T22:42:05.925Z,2.70
2018-04-26T22:45:08.472Z,2.50
2018-04-26T22:48:10.997Z,2.73
2018-04-26T22:51:13.512Z,2.67
2018-04-26T22:54:16.051Z,2.80
2018-04-26T22:57:18.573Z,3.37
2018-04-26T23:00:21.103Z,2.70
2018-04-26T23:03:23.571Z,2.97
2018-04-26T23:06:26.076Z,3.00
2018-04-26T23:09:28.571Z,2.60
2018-04-26T23:12:31.090Z,2.90
2018-04-26T23:15:33.612Z,3.50
2018-04-26T23:18:36.154Z,3.13
2018-04-26T23:21:38.684Z,3.20
2018-04-26T23:24:41.218Z,3.00
2018-04-26T23:27:43.735Z,3.00
2018-04-26T23:30:46.243Z,3.13
2018-04-26T23:33:48.770Z,3.60
2018-04-26T23:36:51.299Z,3.80
2018-04-26T23:39:53.802Z,4.70
2018-04-26T23:42:56.311Z,4.27
2018-04-26T23:45:58.830Z,4.50
2018-04-26T23:49:01.341Z,4.67
2018-04-26T23:52:03.845Z,4.43
2018-04-26T23:55:06.375Z,4.27
2018-04-26T23:58:08.886Z,4.80
